sensor_id;sensor_type;location;lat;lon;timestamp;pressure;altitude;pressure_sealevel;temperature;humidity
64340;BME280;50674;53.290;-9.080;2022-07-19T00:01:44;101071.31;;;21.39;80.68
64340;BME280;50674;53.290;-9.080;2022-07-19T00:04:10;101083.03;;;21.40;80.74
64340;BME280;50674;53.290;-9.080;2022-07-19T00:06:36;101074.41;;;21.36;80.71
64340;BME280;50674;53.290;-9.080;2022-07-19T00:09:03;101082.56;;;21.36;80.76
64340;BME280;50674;53.290;-9.080;2022-07-19T00:11:31;101078.47;;;21.32;80.82
64340;BME280;50674;53.290;-9.080;2022-07-19T00:13:57;101097.31;;;21.34;80.95
64340;BME280;50674;53.290;-9.080;2022-07-19T00:16:23;101122.94;;;21.31;81.11
64340;BME280;50674;53.290;-9.080;2022-07-19T00:18:49;101120.41;;;21.30;81.00
64340;BME280;50674;53.290;-9.080;2022-07-19T00:21:15;101112.25;;;21.30;81.04
64340;BME280;50674;53.290;-9.080;2022-07-19T00:23:41;101116.34;;;21.34;81.49
64340;BME280;50674;53.290;-9.080;2022-07-19T00:26:07;101135.88;;;21.21;81.16
64340;BME280;50674;53.290;-9.080;2022-07-19T00:28:32;101135.72;;;21.22;81.80
64340;BME280;50674;53.290;-9.080;2022-07-19T00:30:58;101114.38;;;21.11;80.89
64340;BME280;50674;53.290;-9.080;2022-07-19T00:33:24;101109.66;;;21.05;81.46
64340;BME280;50674;53.290;-9.080;2022-07-19T00:35:51;101103.34;;;21.13;80.96
64340;BME280;50674;53.290;-9.080;2022-07-19T00:38:16;101115.63;;;21.00;81.02
64340;BME280;50674;53.290;-9.080;2022-07-19T00:40:42;101116.84;;;20.90;81.18
64340;BME280;50674;53.290;-9.080;2022-07-19T00:43:10;101115.34;;;20.79;81.59
64340;BME280;50674;53.290;-9.080;2022-07-19T00:45:38;101112.47;;;20.72;82.22
64340;BME280;50674;53.290;-9.080;2022-07-19T00:48:04;101126.44;;;20.69;81.40
64340;BME280;50674;53.290;-9.080;2022-07-19T00:50:31;101144.91;;;20.66;81.60
64340;BME280;50674;53.290;-9.080;2022-07-19T00:52:59;101125.22;;;20.64;81.55
64340;BME280;50674;53.290;-9.080;2022-07-19T00:55:28;101141.84;;;20.61;81.35
64340;BME280;50674;53.290;-9.080;2022-07-19T00:57:56;101133.38;;;20.47;81.50
64340;BME280;50674;53.290;-9.080;2022-07-19T01:00:23;101147.47;;;20.51;81.50
64340;BME280;50674;53.290;-9.080;2022-07-19T01:02:51;101168.97;;;20.44;81.85
64340;BME280;50674;53.290;-9.080;2022-07-19T01:05:17;101168.63;;;20.39;81.65
64340;BME280;50674;53.290;-9.080;2022-07-19T01:07:44;101174.22;;;20.38;81.91
64340;BME280;50674;53.290;-9.080;2022-07-19T01:10:13;101183.22;;;20.38;81.91
64340;BME280;50674;53.290;-9.080;2022-07-19T01:12:40;101172.53;;;20.37;82.02
64340;BME280;50674;53.290;-9.080;2022-07-19T01:15:17;101167.28;;;20.35;83.35
64340;BME280;50674;53.290;-9.080;2022-07-19T01:17:43;101169.00;;;20.36;82.34
64340;BME280;50674;53.290;-9.080;2022-07-19T01:20:09;101162.88;;;20.34;82.85
64340;BME280;50674;53.290;-9.080;2022-07-19T01:22:35;101157.97;;;20.38;82.65
64340;BME280;50674;53.290;-9.080;2022-07-19T01:25:01;101156.09;;;20.38;83.06
64340;BME280;50674;53.290;-9.080;2022-07-19T01:27:27;101154.06;;;20.40;83.07
64340;BME280;50674;53.290;-9.080;2022-07-19T01:29:53;101149.31;;;20.42;83.19
64340;BME280;50674;53.290;-9.080;2022-07-19T01:32:21;101136.44;;;20.44;83.19
64340;BME280;50674;53.290;-9.080;2022-07-19T01:34:47;101130.66;;;20.39;82.89
64340;BME280;50674;53.290;-9.080;2022-07-19T01:37:13;101138.63;;;20.49;83.22
64340;BME280;50674;53.290;-9.080;2022-07-19T01:39:38;101136.78;;;20.41;82.63
64340;BME280;50674;53.290;-9.080;2022-07-19T01:42:04;101128.81;;;20.48;83.46
64340;BME280;50674;53.290;-9.080;2022-07-19T01:44:29;101133.75;;;20.36;82.56
64340;BME280;50674;53.290;-9.080;2022-07-19T01:46:55;101135.75;;;20.34;82.98
64340;BME280;50674;53.290;-9.080;2022-07-19T01:49:21;101137.47;;;20.27;83.17
64340;BME280;50674;53.290;-9.080;2022-07-19T01:51:47;101136.78;;;20.33;83.11
64340;BME280;50674;53.290;-9.080;2022-07-19T01:54:13;101137.63;;;20.34;83.33
64340;BME280;50674;53.290;-9.080;2022-07-19T01:56:43;101136.44;;;20.36;83.35
64340;BME280;50674;53.290;-9.080;2022-07-19T01:59:08;101130.34;;;20.34;82.50
64340;BME280;50674;53.290;-9.080;2022-07-19T02:01:35;101124.09;;;20.25;82.76
64340;BME280;50674;53.290;-9.080;2022-07-19T02:04:01;101119.50;;;20.26;82.67
64340;BME280;50674;53.290;-9.080;2022-07-19T02:06:27;101114.75;;;20.28;82.80
64340;BME280;50674;53.290;-9.080;2022-07-19T02:08:53;101112.91;;;20.28;83.00
64340;BME280;50674;53.290;-9.080;2022-07-19T02:11:18;101104.94;;;20.27;83.13
64340;BME280;50674;53.290;-9.080;2022-07-19T02:14:07;101117.31;;;20.29;83.97
64340;BME280;50674;53.290;-9.080;2022-07-19T02:16:34;101109.31;;;20.28;83.49
64340;BME280;50674;53.290;-9.080;2022-07-19T02:19:00;101125.25;;;20.31;83.31
64340;BME280;50674;53.290;-9.080;2022-07-19T02:21:26;101115.59;;;20.37;83.70
64340;BME280;50674;53.290;-9.080;2022-07-19T02:23:52;101113.91;;;20.27;83.02
64340;BME280;50674;53.290;-9.080;2022-07-19T02:26:18;101115.44;;;20.30;82.76
64340;BME280;50674;53.290;-9.080;2022-07-19T02:28:44;101118.16;;;20.30;82.86
64340;BME280;50674;53.290;-9.080;2022-07-19T02:31:10;101114.59;;;20.29;83.21
64340;BME280;50674;53.290;-9.080;2022-07-19T02:33:37;101107.63;;;20.27;83.14
64340;BME280;50674;53.290;-9.080;2022-07-19T02:36:03;101116.13;;;20.24;83.18
64340;BME280;50674;53.290;-9.080;2022-07-19T02:38:30;101098.00;;;20.16;83.22
64340;BME280;50674;53.290;-9.080;2022-07-19T02:40:56;101099.34;;;20.20;83.07
64340;BME280;50674;53.290;-9.080;2022-07-19T02:43:22;101103.59;;;20.23;82.78
64340;BME280;50674;53.290;-9.080;2022-07-19T02:45:47;101095.44;;;20.23;82.94
64340;BME280;50674;53.290;-9.080;2022-07-19T02:48:14;101101.91;;;20.22;82.82
64340;BME280;50674;53.290;-9.080;2022-07-19T02:50:40;101099.84;;;20.32;83.13
64340;BME280;50674;53.290;-9.080;2022-07-19T02:53:06;101100.88;;;20.23;82.54
64340;BME280;50674;53.290;-9.080;2022-07-19T02:55:31;101102.41;;;20.25;82.75
64340;BME280;50674;53.290;-9.080;2022-07-19T02:57:57;101103.75;;;20.21;82.72
64340;BME280;50674;53.290;-9.080;2022-07-19T03:00:23;101116.28;;;20.22;82.89
64340;BME280;50674;53.290;-9.080;2022-07-19T03:02:50;101121.41;;;20.17;83.13
64340;BME280;50674;53.290;-9.080;2022-07-19T03:05:16;101115.09;;;20.17;83.14
64340;BME280;50674;53.290;-9.080;2022-07-19T03:07:42;101109.69;;;20.09;83.17
64340;BME280;50674;53.290;-9.080;2022-07-19T03:10:08;101112.75;;;20.14;83.11
64340;BME280;50674;53.290;-9.080;2022-07-19T03:12:34;101106.97;;;20.17;83.00
64340;BME280;50674;53.290;-9.080;2022-07-19T03:15:00;101108.69;;;20.18;82.93
64340;BME280;50674;53.290;-9.080;2022-07-19T03:17:25;101083.63;;;20.08;83.13
64340;BME280;50674;53.290;-9.080;2022-07-19T03:19:51;101091.72;;;20.16;82.98
64340;BME280;50674;53.290;-9.080;2022-07-19T03:22:17;101081.06;;;20.14;83.04
64340;BME280;50674;53.290;-9.080;2022-07-19T03:24:43;101066.31;;;20.09;83.12
64340;BME280;50674;53.290;-9.080;2022-07-19T03:27:11;101091.41;;;20.11;83.20
64340;BME280;50674;53.290;-9.080;2022-07-19T03:29:37;101094.13;;;20.11;83.11
64340;BME280;50674;53.290;-9.080;2022-07-19T03:32:03;101085.16;;;20.10;83.30
64340;BME280;50674;53.290;-9.080;2022-07-19T03:34:29;101082.78;;;20.07;83.15
64340;BME280;50674;53.290;-9.080;2022-07-19T03:36:55;101090.22;;;20.05;83.25
64340;BME280;50674;53.290;-9.080;2022-07-19T03:39:21;101101.56;;;20.09;83.31
64340;BME280;50674;53.290;-9.080;2022-07-19T03:41:46;101101.91;;;20.05;83.61
64340;BME280;50674;53.290;-9.080;2022-07-19T03:44:12;101101.38;;;20.02;83.37
64340;BME280;50674;53.290;-9.080;2022-07-19T03:46:38;101093.44;;;20.09;83.13
64340;BME280;50674;53.290;-9.080;2022-07-19T03:49:04;101094.28;;;19.93;83.29
64340;BME280;50674;53.290;-9.080;2022-07-19T03:51:30;101107.84;;;19.93;83.25
64340;BME280;50674;53.290;-9.080;2022-07-19T03:53:56;101125.25;;;19.90;83.17
64340;BME280;50674;53.290;-9.080;2022-07-19T03:56:21;101126.81;;;19.85;83.22
64340;BME280;50674;53.290;-9.080;2022-07-19T03:58:48;101141.53;;;19.90;83.35
64340;BME280;50674;53.290;-9.080;2022-07-19T04:01:15;101141.53;;;19.90;83.62
64340;BME280;50674;53.290;-9.080;2022-07-19T04:03:41;101135.78;;;19.93;83.60
64340;BME280;50674;53.290;-9.080;2022-07-19T04:06:08;101122.03;;;19.95;83.36
64340;BME280;50674;53.290;-9.080;2022-07-19T04:08:36;101108.16;;;19.90;83.33
64340;BME280;50674;53.290;-9.080;2022-07-19T04:11:03;101089.19;;;19.90;83.23
64340;BME280;50674;53.290;-9.080;2022-07-19T04:13:32;101081.09;;;19.81;83.43
64340;BME280;50674;53.290;-9.080;2022-07-19T04:15:58;101071.75;;;19.76;83.44
64340;BME280;50674;53.290;-9.080;2022-07-19T04:18:24;101077.16;;;19.76;83.18
64340;BME280;50674;53.290;-9.080;2022-07-19T04:20:49;101066.34;;;19.68;83.50
64340;BME280;50674;53.290;-9.080;2022-07-19T04:23:15;101071.75;;;19.68;83.30
64340;BME280;50674;53.290;-9.080;2022-07-19T04:25:41;101084.63;;;19.66;83.53
64340;BME280;50674;53.290;-9.080;2022-07-19T04:28:07;101097.66;;;19.62;83.66
64340;BME280;50674;53.290;-9.080;2022-07-19T04:30:33;101102.22;;;19.62;83.47
64340;BME280;50674;53.290;-9.080;2022-07-19T04:32:59;101100.50;;;19.61;83.51
64340;BME280;50674;53.290;-9.080;2022-07-19T04:35:25;101093.56;;;19.58;83.60
64340;BME280;50674;53.290;-9.080;2022-07-19T04:37:51;101111.00;;;19.55;83.60
64340;BME280;50674;53.290;-9.080;2022-07-19T04:40:17;101112.84;;;19.55;83.69
64340;BME280;50674;53.290;-9.080;2022-07-19T04:42:43;101112.16;;;19.53;83.57
64340;BME280;50674;53.290;-9.080;2022-07-19T04:45:09;101110.47;;;19.52;83.75
64340;BME280;50674;53.290;-9.080;2022-07-19T04:47:35;101101.50;;;19.51;83.99
64340;BME280;50674;53.290;-9.080;2022-07-19T04:50:01;101109.44;;;19.53;83.83
64340;BME280;50674;53.290;-9.080;2022-07-19T04:52:26;101119.09;;;19.55;83.76
64340;BME280;50674;53.290;-9.080;2022-07-19T04:54:52;101123.34;;;19.58;83.69
64340;BME280;50674;53.290;-9.080;2022-07-19T04:57:18;101141.28;;;19.59;83.91
64340;BME280;50674;53.290;-9.080;2022-07-19T04:59:44;101147.25;;;19.63;83.75
64340;BME280;50674;53.290;-9.080;2022-07-19T05:02:10;101142.19;;;19.68;83.71
64340;BME280;50674;53.290;-9.080;2022-07-19T05:04:35;101138.44;;;19.69;83.61
64340;BME280;50674;53.290;-9.080;2022-07-19T05:07:01;101133.72;;;19.71;83.60
64340;BME280;50674;53.290;-9.080;2022-07-19T05:09:28;101122.56;;;19.66;83.80
64340;BME280;50674;53.290;-9.080;2022-07-19T05:11:55;101120.88;;;19.73;83.71
64340;BME280;50674;53.290;-9.080;2022-07-19T05:14:21;101113.91;;;19.78;83.61
64340;BME280;50674;53.290;-9.080;2022-07-19T05:16:47;101095.97;;;19.77;83.84
64340;BME280;50674;53.290;-9.080;2022-07-19T05:19:16;101087.69;;;19.71;83.84
64340;BME280;50674;53.290;-9.080;2022-07-19T05:21:42;101103.94;;;19.79;83.77
64340;BME280;50674;53.290;-9.080;2022-07-19T05:24:08;101114.44;;;19.82;83.90
64340;BME280;50674;53.290;-9.080;2022-07-19T05:26:34;101100.56;;;19.85;83.92
64340;BME280;50674;53.290;-9.080;2022-07-19T05:29:02;101098.34;;;19.89;83.79
64340;BME280;50674;53.290;-9.080;2022-07-19T05:31:29;101110.72;;;19.91;83.86
64340;BME280;50674;53.290;-9.080;2022-07-19T05:33:55;101112.56;;;19.91;84.05
64340;BME280;50674;53.290;-9.080;2022-07-19T05:36:21;101126.63;;;19.86;84.55
64340;BME280;50674;53.290;-9.080;2022-07-19T05:38:48;101123.91;;;19.94;84.30
64340;BME280;50674;53.290;-9.080;2022-07-19T05:41:13;101117.00;;;19.92;84.51
64340;BME280;50674;53.290;-9.080;2022-07-19T05:43:42;101123.06;;;19.94;84.33
64340;BME280;50674;53.290;-9.080;2022-07-19T05:46:09;101116.16;;;19.91;84.44
64340;BME280;50674;53.290;-9.080;2022-07-19T05:48:36;101113.06;;;19.94;84.44
64340;BME280;50674;53.290;-9.080;2022-07-19T05:51:02;101109.53;;;19.94;84.64
64340;BME280;50674;53.290;-9.080;2022-07-19T05:53:27;101112.75;;;19.97;84.58
64340;BME280;50674;53.290;-9.080;2022-07-19T05:55:54;101107.50;;;20.04;84.49
64340;BME280;50674;53.290;-9.080;2022-07-19T06:00:47;101131.38;;;20.17;84.09
64340;BME280;50674;53.290;-9.080;2022-07-19T06:03:32;101120.19;;;20.20;84.06
64340;BME280;50674;53.290;-9.080;2022-07-19T06:05:58;101125.09;;;20.24;83.99
64340;BME280;50674;53.290;-9.080;2022-07-19T06:08:23;101120.34;;;20.26;83.66
64340;BME280;50674;53.290;-9.080;2022-07-19T06:10:50;101131.00;;;20.28;83.80
64340;BME280;50674;53.290;-9.080;2022-07-19T06:13:17;101109.50;;;20.26;83.78
64340;BME280;50674;53.290;-9.080;2022-07-19T06:15:43;101109.00;;;20.23;83.88
64340;BME280;50674;53.290;-9.080;2022-07-19T06:18:09;101114.44;;;20.23;84.00
64340;BME280;50674;53.290;-9.080;2022-07-19T06:20:35;101110.38;;;20.19;83.85
64340;BME280;50674;53.290;-9.080;2022-07-19T06:23:01;101112.06;;;20.20;83.94
64340;BME280;50674;53.290;-9.080;2022-07-19T06:25:27;101103.41;;;20.16;84.15
64340;BME280;50674;53.290;-9.080;2022-07-19T06:27:53;101111.41;;;20.18;84.11
64340;BME280;50674;53.290;-9.080;2022-07-19T06:30:18;101112.56;;;20.15;84.30
64340;BME280;50674;53.290;-9.080;2022-07-19T06:32:44;101116.97;;;20.16;84.35
64340;BME280;50674;53.290;-9.080;2022-07-19T06:35:11;101113.59;;;20.14;84.19
64340;BME280;50674;53.290;-9.080;2022-07-19T06:37:37;101117.81;;;20.09;84.72
64340;BME280;50674;53.290;-9.080;2022-07-19T06:40:03;101114.09;;;20.01;84.67
64340;BME280;50674;53.290;-9.080;2022-07-19T06:42:29;101122.06;;;20.03;84.62
64340;BME280;50674;53.290;-9.080;2022-07-19T06:44:55;101119.88;;;20.06;84.51
64340;BME280;50674;53.290;-9.080;2022-07-19T06:47:21;101119.34;;;20.11;84.51
64340;BME280;50674;53.290;-9.080;2022-07-19T06:49:47;101122.91;;;20.03;84.47
64340;BME280;50674;53.290;-9.080;2022-07-19T06:52:12;101115.44;;;20.05;84.50
64340;BME280;50674;53.290;-9.080;2022-07-19T06:54:38;101113.75;;;20.04;84.46
64340;BME280;50674;53.290;-9.080;2022-07-19T06:57:04;101111.72;;;19.98;84.82
64340;BME280;50674;53.290;-9.080;2022-07-19T06:59:31;101114.28;;;20.00;84.69
64340;BME280;50674;53.290;-9.080;2022-07-19T07:01:58;101122.88;;;19.87;85.30
64340;BME280;50674;53.290;-9.080;2022-07-19T07:04:24;101114.44;;;19.74;85.54
64340;BME280;50674;53.290;-9.080;2022-07-19T07:06:50;101114.75;;;19.71;85.70
64340;BME280;50674;53.290;-9.080;2022-07-19T07:09:16;101115.06;;;19.59;86.23
64340;BME280;50674;53.290;-9.080;2022-07-19T07:11:41;101113.69;;;19.55;86.30
64340;BME280;50674;53.290;-9.080;2022-07-19T07:14:08;101125.88;;;19.51;86.30
64340;BME280;50674;53.290;-9.080;2022-07-19T07:16:33;101117.38;;;19.46;86.47
64340;BME280;50674;53.290;-9.080;2022-07-19T07:18:59;101136.19;;;19.48;86.63
64340;BME280;50674;53.290;-9.080;2022-07-19T07:21:25;101123.69;;;19.47;86.63
64340;BME280;50674;53.290;-9.080;2022-07-19T07:23:51;101123.31;;;19.50;86.58
64340;BME280;50674;53.290;-9.080;2022-07-19T07:26:16;101115.56;;;19.47;86.65
64340;BME280;50674;53.290;-9.080;2022-07-19T07:28:42;101120.28;;;19.53;86.27
64340;BME280;50674;53.290;-9.080;2022-07-19T07:31:08;101116.72;;;19.52;86.25
64340;BME280;50674;53.290;-9.080;2022-07-19T07:33:34;101111.00;;;19.55;86.33
64340;BME280;50674;53.290;-9.080;2022-07-19T07:36:00;101112.88;;;19.63;86.16
64340;BME280;50674;53.290;-9.080;2022-07-19T07:38:26;101115.94;;;19.68;85.79
64340;BME280;50674;53.290;-9.080;2022-07-19T07:40:51;101111.88;;;19.64;85.97
64340;BME280;50674;53.290;-9.080;2022-07-19T07:43:18;101108.00;;;19.67;85.69
64340;BME280;50674;53.290;-9.080;2022-07-19T07:45:43;101102.91;;;19.80;85.19
64340;BME280;50674;53.290;-9.080;2022-07-19T07:48:09;101091.56;;;19.68;85.47
64340;BME280;50674;53.290;-9.080;2022-07-19T07:50:35;101082.91;;;19.65;85.40
64340;BME280;50674;53.290;-9.080;2022-07-19T07:53:00;101084.28;;;19.69;85.61
64340;BME280;50674;53.290;-9.080;2022-07-19T07:55:26;101079.03;;;19.67;85.55
64340;BME280;50674;53.290;-9.080;2022-07-19T07:57:52;101077.88;;;19.70;85.44
64340;BME280;50674;53.290;-9.080;2022-07-19T08:00:18;101093.41;;;19.76;85.28
64340;BME280;50674;53.290;-9.080;2022-07-19T08:02:45;101090.91;;;19.82;85.04
64340;BME280;50674;53.290;-9.080;2022-07-19T08:05:12;101098.19;;;19.90;84.78
64340;BME280;50674;53.290;-9.080;2022-07-19T08:07:38;101095.13;;;20.01;84.69
64340;BME280;50674;53.290;-9.080;2022-07-19T08:10:06;101110.19;;;20.12;84.28
64340;BME280;50674;53.290;-9.080;2022-07-19T08:12:33;101121.41;;;20.17;83.94
64340;BME280;50674;53.290;-9.080;2022-07-19T08:14:58;101129.53;;;20.17;83.71
64340;BME280;50674;53.290;-9.080;2022-07-19T08:17:24;101127.97;;;20.23;83.41
64340;BME280;50674;53.290;-9.080;2022-07-19T08:19:50;101135.56;;;20.36;83.04
64340;BME280;50674;53.290;-9.080;2022-07-19T08:22:17;101130.53;;;20.33;83.01
64340;BME280;50674;53.290;-9.080;2022-07-19T08:24:44;101132.88;;;20.36;82.74
64340;BME280;50674;53.290;-9.080;2022-07-19T08:27:10;101132.19;;;20.42;82.70
64340;BME280;50674;53.290;-9.080;2022-07-19T08:29:36;101148.84;;;20.55;82.53
64340;BME280;50674;53.290;-9.080;2022-07-19T08:32:02;101153.06;;;20.66;82.46
64340;BME280;50674;53.290;-9.080;2022-07-19T08:34:28;101146.72;;;20.82;82.12
64340;BME280;50674;53.290;-9.080;2022-07-19T08:36:53;101156.38;;;20.92;81.66
64340;BME280;50674;53.290;-9.080;2022-07-19T08:39:19;101146.16;;;21.02;81.53
64340;BME280;50674;53.290;-9.080;2022-07-19T08:41:45;101149.13;;;21.16;80.79
64340;BME280;50674;53.290;-9.080;2022-07-19T08:44:12;101144.34;;;21.26;80.74
64340;BME280;50674;53.290;-9.080;2022-07-19T08:46:43;101148.38;;;21.38;80.22
64340;BME280;50674;53.290;-9.080;2022-07-19T08:49:09;101139.69;;;21.51;79.62
64340;BME280;50674;53.290;-9.080;2022-07-19T08:51:37;101139.63;;;21.59;79.33
64340;BME280;50674;53.290;-9.080;2022-07-19T08:54:03;101128.47;;;21.77;79.00
64340;BME280;50674;53.290;-9.080;2022-07-19T08:56:29;101122.97;;;21.85;78.55
64340;BME280;50674;53.290;-9.080;2022-07-19T08:59:14;101116.31;;;21.88;77.93
64340;BME280;50674;53.290;-9.080;2022-07-19T09:01:40;101120.25;;;21.85;78.05
64340;BME280;50674;53.290;-9.080;2022-07-19T09:04:17;101119.03;;;21.88;77.58
64340;BME280;50674;53.290;-9.080;2022-07-19T09:06:52;101122.28;;;21.83;77.42
64340;BME280;50674;53.290;-9.080;2022-07-19T09:09:21;101125.97;;;21.90;77.76
64340;BME280;50674;53.290;-9.080;2022-07-19T09:11:49;101129.59;;;21.83;77.46
64340;BME280;50674;53.290;-9.080;2022-07-19T09:14:21;101131.84;;;21.79;77.53
64340;BME280;50674;53.290;-9.080;2022-07-19T09:17:09;101139.63;;;21.82;77.01
64340;BME280;50674;53.290;-9.080;2022-07-19T09:19:45;101143.50;;;21.88;77.10
64340;BME280;50674;53.290;-9.080;2022-07-19T09:22:16;101145.69;;;21.92;76.83
64340;BME280;50674;53.290;-9.080;2022-07-19T09:24:48;101143.25;;;21.97;76.19
64340;BME280;50674;53.290;-9.080;2022-07-19T09:27:19;101145.31;;;21.95;76.37
64340;BME280;50674;53.290;-9.080;2022-07-19T09:29:53;101146.31;;;21.94;75.93
64340;BME280;50674;53.290;-9.080;2022-07-19T09:32:23;101146.31;;;21.94;75.75
64340;BME280;50674;53.290;-9.080;2022-07-19T09:34:55;101143.25;;;21.97;76.23
64340;BME280;50674;53.290;-9.080;2022-07-19T09:37:26;101169.16;;;22.08;76.32
64340;BME280;50674;53.290;-9.080;2022-07-19T09:40:07;101161.66;;;22.18;76.38
64340;BME280;50674;53.290;-9.080;2022-07-19T09:42:38;101172.72;;;22.32;76.10
64340;BME280;50674;53.290;-9.080;2022-07-19T09:45:10;101173.69;;;22.39;76.28
64340;BME280;50674;53.290;-9.080;2022-07-19T09:47:42;101178.69;;;22.50;76.39
64340;BME280;50674;53.290;-9.080;2022-07-19T09:50:19;101195.03;;;22.65;75.66
64340;BME280;50674;53.290;-9.080;2022-07-19T09:52:48;101202.00;;;22.67;75.57
64340;BME280;50674;53.290;-9.080;2022-07-19T09:55:17;101227.34;;;22.68;75.31
64340;BME280;50674;53.290;-9.080;2022-07-19T09:57:48;101237.66;;;22.73;75.09
64340;BME280;50674;53.290;-9.080;2022-07-19T10:00:18;101254.56;;;22.68;74.70
64340;BME280;50674;53.290;-9.080;2022-07-19T10:02:49;101270.28;;;22.58;74.98
64340;BME280;50674;53.290;-9.080;2022-07-19T10:05:16;101278.59;;;22.41;75.37
64340;BME280;50674;53.290;-9.080;2022-07-19T10:07:43;101295.81;;;22.34;75.47
64340;BME280;50674;53.290;-9.080;2022-07-19T10:10:11;101310.44;;;22.33;75.83
64340;BME280;50674;53.290;-9.080;2022-07-19T10:12:39;101303.22;;;22.17;76.40
64340;BME280;50674;53.290;-9.080;2022-07-19T10:15:06;101311.75;;;22.06;76.97
64340;BME280;50674;53.290;-9.080;2022-07-19T10:20:31;101306.09;;;21.84;76.74
64340;BME280;50674;53.290;-9.080;2022-07-19T10:22:59;101284.72;;;21.81;76.84
64340;BME280;50674;53.290;-9.080;2022-07-19T10:25:38;101262.63;;;21.76;77.21
64340;BME280;50674;53.290;-9.080;2022-07-19T10:28:04;101251.31;;;21.64;77.60
64340;BME280;50674;53.290;-9.080;2022-07-19T10:30:39;101228.53;;;21.65;77.76
64340;BME280;50674;53.290;-9.080;2022-07-19T10:33:26;101205.75;;;21.74;77.93
64340;BME280;50674;53.290;-9.080;2022-07-19T10:35:52;101195.06;;;21.73;77.82
64340;BME280;50674;53.290;-9.080;2022-07-19T10:38:19;101202.09;;;21.90;77.58
64340;BME280;50674;53.290;-9.080;2022-07-19T10:40:52;101190.56;;;21.88;77.65
64340;BME280;50674;53.290;-9.080;2022-07-19T10:43:23;101175.81;;;21.83;77.69
64340;BME280;50674;53.290;-9.080;2022-07-19T10:51:30;101144.03;;;21.83;77.78
64340;BME280;50674;53.290;-9.080;2022-07-19T10:56:31;101115.38;;;21.81;77.49
64340;BME280;50674;53.290;-9.080;2022-07-19T10:59:05;101128.53;;;21.92;77.19
64340;BME280;50674;53.290;-9.080;2022-07-19T11:01:32;101143.94;;;21.99;76.75
64340;BME280;50674;53.290;-9.080;2022-07-19T11:04:25;101153.53;;;22.10;76.23
64340;BME280;50674;53.290;-9.080;2022-07-19T11:07:15;101169.59;;;22.20;75.62
64340;BME280;50674;53.290;-9.080;2022-07-19T11:09:56;101195.88;;;22.28;76.03
64340;BME280;50674;53.290;-9.080;2022-07-19T11:12:24;101186.25;;;22.25;75.68
64340;BME280;50674;53.290;-9.080;2022-07-19T11:14:50;101154.38;;;22.34;75.71
64340;BME280;50674;53.290;-9.080;2022-07-19T11:17:16;101158.81;;;22.50;75.18
64340;BME280;50674;53.290;-9.080;2022-07-19T11:20:06;101163.75;;;22.46;74.21
64340;BME280;50674;53.290;-9.080;2022-07-19T11:22:42;101134.75;;;22.38;75.11
64340;BME280;50674;53.290;-9.080;2022-07-19T11:25:10;101126.91;;;22.43;75.08
64340;BME280;50674;53.290;-9.080;2022-07-19T11:27:41;101113.75;;;22.47;74.89
64340;BME280;50674;53.290;-9.080;2022-07-19T11:30:08;101106.75;;;22.53;75.09
64340;BME280;50674;53.290;-9.080;2022-07-19T11:32:34;101091.16;;;22.61;74.81
64340;BME280;50674;53.290;-9.080;2022-07-19T11:35:06;101083.47;;;22.80;74.45
64340;BME280;50674;53.290;-9.080;2022-07-19T11:37:35;101091.34;;;22.75;74.01
64340;BME280;50674;53.290;-9.080;2022-07-19T11:40:03;101103.09;;;22.75;73.90
64340;BME280;50674;53.290;-9.080;2022-07-19T11:42:35;101119.88;;;22.79;73.91
64340;BME280;50674;53.290;-9.080;2022-07-19T11:45:23;101121.78;;;22.78;74.03
64340;BME280;50674;53.290;-9.080;2022-07-19T11:47:53;101118.38;;;22.61;74.14
64340;BME280;50674;53.290;-9.080;2022-07-19T11:50:24;101083.38;;;22.43;74.46
64340;BME280;50674;53.290;-9.080;2022-07-19T11:52:58;101069.38;;;22.46;74.17
64340;BME280;50674;53.290;-9.080;2022-07-19T11:55:34;101057.38;;;22.41;74.38
64340;BME280;50674;53.290;-9.080;2022-07-19T11:58:06;101035.78;;;22.39;74.50
64340;BME280;50674;53.290;-9.080;2022-07-19T12:00:33;101058.50;;;22.46;74.16
64340;BME280;50674;53.290;-9.080;2022-07-19T12:05:31;101100.25;;;22.54;74.52
64340;BME280;50674;53.290;-9.080;2022-07-19T12:08:00;101105.06;;;22.52;74.25
64340;BME280;50674;53.290;-9.080;2022-07-19T12:10:33;101117.81;;;22.51;74.54
64340;BME280;50674;53.290;-9.080;2022-07-19T12:13:01;101120.91;;;22.48;74.33
64340;BME280;50674;53.290;-9.080;2022-07-19T12:15:51;101137.78;;;22.43;74.59
64340;BME280;50674;53.290;-9.080;2022-07-19T12:18:22;101160.28;;;22.37;74.69
64340;BME280;50674;53.290;-9.080;2022-07-19T12:21:40;101202.66;;;22.32;75.05
64340;BME280;50674;53.290;-9.080;2022-07-19T12:24:24;101223.84;;;22.21;75.23
64340;BME280;50674;53.290;-9.080;2022-07-19T12:27:06;101226.75;;;22.12;75.24
64340;BME280;50674;53.290;-9.080;2022-07-19T12:29:44;101187.22;;;22.01;75.59
64340;BME280;50674;53.290;-9.080;2022-07-19T12:32:26;101176.22;;;21.94;75.51
64340;BME280;50674;53.290;-9.080;2022-07-19T12:35:03;101173.41;;;21.88;75.78
64340;BME280;50674;53.290;-9.080;2022-07-19T12:37:39;101164.34;;;21.95;75.73
64340;BME280;50674;53.290;-9.080;2022-07-19T12:40:07;101168.84;;;21.80;76.16
64340;BME280;50674;53.290;-9.080;2022-07-19T12:42:53;101178.03;;;21.79;76.35
64340;BME280;50674;53.290;-9.080;2022-07-19T12:45:30;101192.53;;;21.71;76.69
64340;BME280;50674;53.290;-9.080;2022-07-19T12:47:57;101204.59;;;21.69;76.91
64340;BME280;50674;53.290;-9.080;2022-07-19T12:50:23;101205.97;;;21.65;76.96
64340;BME280;50674;53.290;-9.080;2022-07-19T12:52:52;101186.66;;;21.60;77.04
64340;BME280;50674;53.290;-9.080;2022-07-19T12:55:18;101173.59;;;21.55;77.39
64340;BME280;50674;53.290;-9.080;2022-07-19T12:57:46;101157.97;;;21.57;77.32
64340;BME280;50674;53.290;-9.080;2022-07-19T13:00:13;101145.59;;;21.55;77.59
64340;BME280;50674;53.290;-9.080;2022-07-19T13:02:40;101111.97;;;21.56;77.80